This is the latest recevied weather packets stored in our database for station/object DK2OO-6. If no packets are shown the sender has not sent any weather packets the latest 10 day(s).
| Time | Temp. | Humidity | Pressure | Rain* | Wind** | Luminosity | Snow |
|---|---|---|---|---|---|---|---|
| 1788325186 | 9.44° C | 82% | 1015.5 hPa | 0 mm | - | - | - |
| 1788323374 | 9.44° C | 81% | 1015.3 hPa | 0 mm | - | - | - |
| 1788322767 | 9.44° C | 82% | 1015.3 hPa | 0 mm | - | - | - |
| 1788298001 | 14.44° C | 70% | 1015.8 hPa | 0 mm | - | - | - |
| 1788287117 | 18.89° C | 58% | 1015.1 hPa | 0 mm | - | - | - |
| 1788286511 | 18.89° C | 55% | 1014.9 hPa | 0 mm | - | - | - |
| 1788284105 | 20.56° C | 51% | 1014.6 hPa | 0 mm | - | - | - |
| 1788282892 | 20.56° C | 50% | 1014.5 hPa | 0 mm | - | - | - |
| 1788282287 | 21.11° C | 50% | 1014.8 hPa | 0 mm | - | - | - |
| 1788280489 | 21.67° C | 48% | 1014.8 hPa | 0 mm | - | - | - |
| 1788279869 | 21.67° C | 48% | 1014.8 hPa | 0 mm | - | - | - |
| 1788278667 | 21.67° C | 48% | 1014.7 hPa | 0 mm | - | - | - |
| 1788278067 | 21.67° C | 48% | 1014.7 hPa | 0 mm | - | - | - |
| 1788276247 | 22.78° C | 47% | 1014.6 hPa | 0 mm | - | - | - |
| 1788275639 | 22.78° C | 47% | 1014.7 hPa | 0 mm | - | - | - |
| 1788275036 | 22.78° C | 47% | 1014.6 hPa | 0 mm | - | - | - |
| 1788273221 | 23.33° C | 49% | 1014.5 hPa | 0 mm | - | - | - |
| 1788272015 | 23.33° C | 48% | 1014.6 hPa | 0 mm | - | - | - |
| 1788271407 | 23.33° C | 48% | 1014.7 hPa | 0 mm | - | - | - |
| 1788270803 | 22.78° C | 50% | 1014.7 hPa | 0 mm | - | - | - |
| 1788268995 | 22.78° C | 52% | 1015.2 hPa | 0 mm | - | - | - |
| 1788268390 | 22.78° C | 50% | 1015 hPa | 0 mm | - | - | - |
| 1788267789 | 22.78° C | 51% | 1015.2 hPa | 0 mm | - | - | - |
| 1788267184 | 22.78° C | 51% | 1015.2 hPa | 0 mm | - | - | - |
| 1788265973 | 23.33° C | 51% | 1015.3 hPa | 0 mm | - | - | - |
* Rain latest hour (hover to see other rain measurements)
** Current wind speed in m/s (hover to see current wind gust speed)